Hlavní strana
METAR-TAF:

METAR-TAF

Letiště :

Bratislava, Slovensko

Letiště Bratislava

zeměpisná šířka: 48-12N, zeměpisná délka: 017-12E, výška: 133 m

Aktuální stav počasí

Zpráva byla vytvořena před 34 minutami, v 13:30 UTC
Severní vítr 20 kt
Teplota -1°C
Vlhkost vzduchu 46%
Tlak 1020 hPa
Viditelnost 10 km a více
Polojasno ve výšce 4500 ft

METAR: LZIB 241330Z 36020KT 9999 SCT045 M01/M11 Q1020 R88/CLRD// NOSIG

Čas: 15:04 (14:04 UTC)

Předpověď počasí

Zpráva byla vytvořena před 3 hodinami a 4 minutami, v 11:00 UTC
Předpověď platná od 24 v 12 UTC do 25 v 12 UTC
Severní vítr 12 kt
Viditelnost 10 km a více
Žádná oblačnost pod 1500 m, nevyskytují se cumulonimby.
Dočasný
od 24 v 12 UTC do 24 v 16 UTC
Severní vítr 17 kt
Viditelnost 10 km a více
Polojasno ve výšce 4000 ft
Změna
od 24 v 22 UTC do 25 v 00 UTC
Severoseverovýchodní vítr 8 kt

TAF: LZIB 241100Z 2412/2512 35012KT CAVOK TEMPO 2412/2416 01017KT 9999 SCT040 BECMG 2422/2500 03008KT

Stav a předpovědi počasí z více než 4 000 letišť (zprávy METAR a TAF).

Červené a žluté tečky na mapě představují dostupné meteorologické stanice.

Když kurzor umístíte na tečku, zobrazí se název stanice.

Pak kliknutím zobrazíte stav a předpověď počasí.

Chcete-li změnit mapu, kliknutím na zelené tlačítko se znaménkem +mapu přiblížíte, kliknutím na zelené tlačítko se znaménkem – mapu oddálíte a kliknutím na zelené šipky přejdete na sousední mapy.


METAR-TAF: